sensor_id;sensor_type;location;lat;lon;timestamp;temperature;humidity
22450;DHT22;11392;57.390;-2.468;2023-06-10T00:02:22;8.80;99.90
22450;DHT22;11392;57.390;-2.468;2023-06-10T00:04:49;8.80;99.90
22450;DHT22;11392;57.390;-2.468;2023-06-10T00:07:17;8.80;99.90
22450;DHT22;11392;57.390;-2.468;2023-06-10T00:09:44;8.80;99.90
22450;DHT22;11392;57.390;-2.468;2023-06-10T00:12:11;8.80;99.90
22450;DHT22;11392;57.390;-2.468;2023-06-10T00:14:39;8.60;99.90
22450;DHT22;11392;57.390;-2.468;2023-06-10T00:17:07;8.50;99.90
22450;DHT22;11392;57.390;-2.468;2023-06-10T00:19:38;8.60;99.90
22450;DHT22;11392;57.390;-2.468;2023-06-10T00:22:08;8.70;99.90
22450;DHT22;11392;57.390;-2.468;2023-06-10T00:24:37;8.70;99.90
22450;DHT22;11392;57.390;-2.468;2023-06-10T00:27:05;8.70;99.90
22450;DHT22;11392;57.390;-2.468;2023-06-10T00:29:34;8.70;99.90
22450;DHT22;11392;57.390;-2.468;2023-06-10T00:32:01;8.70;99.90
22450;DHT22;11392;57.390;-2.468;2023-06-10T00:34:29;8.60;99.90
22450;DHT22;11392;57.390;-2.468;2023-06-10T00:36:56;8.50;99.90
22450;DHT22;11392;57.390;-2.468;2023-06-10T00:39:23;8.50;99.90
22450;DHT22;11392;57.390;-2.468;2023-06-10T00:41:51;8.50;99.90
22450;DHT22;11392;57.390;-2.468;2023-06-10T00:44:18;8.50;99.90
22450;DHT22;11392;57.390;-2.468;2023-06-10T00:46:45;8.40;99.90
22450;DHT22;11392;57.390;-2.468;2023-06-10T00:49:12;8.40;99.90
22450;DHT22;11392;57.390;-2.468;2023-06-10T00:51:39;8.30;99.90
22450;DHT22;11392;57.390;-2.468;2023-06-10T00:54:07;8.30;99.90
22450;DHT22;11392;57.390;-2.468;2023-06-10T00:56:35;8.30;99.90
22450;DHT22;11392;57.390;-2.468;2023-06-10T00:59:03;8.30;99.90
22450;DHT22;11392;57.390;-2.468;2023-06-10T01:01:30;8.30;99.90
22450;DHT22;11392;57.390;-2.468;2023-06-10T01:03:57;8.30;99.90
22450;DHT22;11392;57.390;-2.468;2023-06-10T01:06:36;8.30;99.90
22450;DHT22;11392;57.390;-2.468;2023-06-10T01:09:13;8.30;99.90
22450;DHT22;11392;57.390;-2.468;2023-06-10T01:11:56;8.30;99.90
22450;DHT22;11392;57.390;-2.468;2023-06-10T01:14:25;8.30;99.90
22450;DHT22;11392;57.390;-2.468;2023-06-10T01:16:53;8.30;99.90
22450;DHT22;11392;57.390;-2.468;2023-06-10T01:19:20;8.30;99.90
22450;DHT22;11392;57.390;-2.468;2023-06-10T01:21:51;8.30;99.90
22450;DHT22;11392;57.390;-2.468;2023-06-10T01:24:18;8.30;99.90
22450;DHT22;11392;57.390;-2.468;2023-06-10T01:26:48;8.30;99.90
22450;DHT22;11392;57.390;-2.468;2023-06-10T01:29:31;8.30;99.90
22450;DHT22;11392;57.390;-2.468;2023-06-10T01:32:08;8.30;99.90
22450;DHT22;11392;57.390;-2.468;2023-06-10T01:34:41;8.30;99.90
22450;DHT22;11392;57.390;-2.468;2023-06-10T01:37:12;8.30;99.90
22450;DHT22;11392;57.390;-2.468;2023-06-10T01:39:40;8.30;99.90
22450;DHT22;11392;57.390;-2.468;2023-06-10T01:42:10;8.30;99.90
22450;DHT22;11392;57.390;-2.468;2023-06-10T01:44:39;8.30;99.90
22450;DHT22;11392;57.390;-2.468;2023-06-10T01:47:06;8.30;99.90
22450;DHT22;11392;57.390;-2.468;2023-06-10T01:49:33;8.30;99.90
22450;DHT22;11392;57.390;-2.468;2023-06-10T01:52:00;8.20;99.90
22450;DHT22;11392;57.390;-2.468;2023-06-10T01:54:27;8.20;99.90
22450;DHT22;11392;57.390;-2.468;2023-06-10T01:56:54;8.20;99.90
22450;DHT22;11392;57.390;-2.468;2023-06-10T01:59:22;8.20;99.90
22450;DHT22;11392;57.390;-2.468;2023-06-10T02:01:49;8.20;99.90
22450;DHT22;11392;57.390;-2.468;2023-06-10T02:04:16;8.10;99.90
22450;DHT22;11392;57.390;-2.468;2023-06-10T02:06:43;8.10;99.90
22450;DHT22;11392;57.390;-2.468;2023-06-10T02:09:10;8.10;99.90
22450;DHT22;11392;57.390;-2.468;2023-06-10T02:11:37;8.00;99.90
22450;DHT22;11392;57.390;-2.468;2023-06-10T02:14:05;8.00;99.90
22450;DHT22;11392;57.390;-2.468;2023-06-10T02:16:32;8.00;99.90
22450;DHT22;11392;57.390;-2.468;2023-06-10T02:18:59;8.00;99.90
22450;DHT22;11392;57.390;-2.468;2023-06-10T02:21:27;8.00;99.90
22450;DHT22;11392;57.390;-2.468;2023-06-10T02:23:54;8.00;99.90
22450;DHT22;11392;57.390;-2.468;2023-06-10T02:26:21;7.90;99.90
22450;DHT22;11392;57.390;-2.468;2023-06-10T02:28:49;7.90;99.90
22450;DHT22;11392;57.390;-2.468;2023-06-10T02:31:17;7.90;99.90
22450;DHT22;11392;57.390;-2.468;2023-06-10T02:33:44;8.00;99.90
22450;DHT22;11392;57.390;-2.468;2023-06-10T02:36:12;7.90;99.90
22450;DHT22;11392;57.390;-2.468;2023-06-10T02:38:42;8.00;99.90
22450;DHT22;11392;57.390;-2.468;2023-06-10T02:41:09;7.90;99.90
22450;DHT22;11392;57.390;-2.468;2023-06-10T02:43:36;7.90;99.90
22450;DHT22;11392;57.390;-2.468;2023-06-10T02:46:03;7.90;99.90
22450;DHT22;11392;57.390;-2.468;2023-06-10T02:48:30;7.90;99.90
22450;DHT22;11392;57.390;-2.468;2023-06-10T02:50:57;7.80;99.90
22450;DHT22;11392;57.390;-2.468;2023-06-10T02:53:24;7.80;99.90
22450;DHT22;11392;57.390;-2.468;2023-06-10T02:55:52;7.80;99.90
22450;DHT22;11392;57.390;-2.468;2023-06-10T02:58:19;7.80;99.90
22450;DHT22;11392;57.390;-2.468;2023-06-10T03:00:47;7.80;99.90
22450;DHT22;11392;57.390;-2.468;2023-06-10T03:03:15;7.80;99.90
22450;DHT22;11392;57.390;-2.468;2023-06-10T03:05:42;7.80;99.90
22450;DHT22;11392;57.390;-2.468;2023-06-10T03:08:10;7.80;99.90
22450;DHT22;11392;57.390;-2.468;2023-06-10T03:10:37;7.80;99.90
22450;DHT22;11392;57.390;-2.468;2023-06-10T03:13:04;7.80;99.90
22450;DHT22;11392;57.390;-2.468;2023-06-10T03:15:31;7.80;99.90
22450;DHT22;11392;57.390;-2.468;2023-06-10T03:18:00;7.80;99.90
22450;DHT22;11392;57.390;-2.468;2023-06-10T03:20:27;7.80;99.90
22450;DHT22;11392;57.390;-2.468;2023-06-10T03:22:55;7.80;99.90
22450;DHT22;11392;57.390;-2.468;2023-06-10T03:25:22;7.80;99.90
22450;DHT22;11392;57.390;-2.468;2023-06-10T03:27:49;7.80;99.90
22450;DHT22;11392;57.390;-2.468;2023-06-10T03:30:16;7.80;99.90
22450;DHT22;11392;57.390;-2.468;2023-06-10T03:32:43;7.80;99.90
22450;DHT22;11392;57.390;-2.468;2023-06-10T03:35:10;7.80;99.90
22450;DHT22;11392;57.390;-2.468;2023-06-10T03:37:38;7.90;99.90
22450;DHT22;11392;57.390;-2.468;2023-06-10T03:40:07;7.90;99.90
22450;DHT22;11392;57.390;-2.468;2023-06-10T03:42:35;7.90;99.90
22450;DHT22;11392;57.390;-2.468;2023-06-10T03:45:02;7.90;99.90
22450;DHT22;11392;57.390;-2.468;2023-06-10T03:47:37;7.90;99.90
22450;DHT22;11392;57.390;-2.468;2023-06-10T03:50:04;7.80;99.90
22450;DHT22;11392;57.390;-2.468;2023-06-10T03:52:32;7.90;99.90
22450;DHT22;11392;57.390;-2.468;2023-06-10T03:54:59;7.90;99.90
22450;DHT22;11392;57.390;-2.468;2023-06-10T03:57:26;8.00;99.90
22450;DHT22;11392;57.390;-2.468;2023-06-10T03:59:54;8.00;99.90
22450;DHT22;11392;57.390;-2.468;2023-06-10T04:02:21;8.10;99.90
22450;DHT22;11392;57.390;-2.468;2023-06-10T04:04:49;8.10;99.90
22450;DHT22;11392;57.390;-2.468;2023-06-10T04:07:17;8.10;99.90
22450;DHT22;11392;57.390;-2.468;2023-06-10T04:09:47;8.20;99.90
22450;DHT22;11392;57.390;-2.468;2023-06-10T04:12:14;8.20;99.90
22450;DHT22;11392;57.390;-2.468;2023-06-10T04:14:41;8.20;99.90
22450;DHT22;11392;57.390;-2.468;2023-06-10T04:17:08;8.20;99.90
22450;DHT22;11392;57.390;-2.468;2023-06-10T04:19:36;8.20;99.90
22450;DHT22;11392;57.390;-2.468;2023-06-10T04:22:03;8.30;99.90
22450;DHT22;11392;57.390;-2.468;2023-06-10T04:24:31;8.30;99.90
22450;DHT22;11392;57.390;-2.468;2023-06-10T04:26:58;8.30;99.90
22450;DHT22;11392;57.390;-2.468;2023-06-10T04:29:25;8.30;99.90
22450;DHT22;11392;57.390;-2.468;2023-06-10T04:31:53;8.40;99.90
22450;DHT22;11392;57.390;-2.468;2023-06-10T04:34:20;8.40;99.90
22450;DHT22;11392;57.390;-2.468;2023-06-10T04:36:47;8.50;99.90
22450;DHT22;11392;57.390;-2.468;2023-06-10T04:39:14;8.50;99.90
22450;DHT22;11392;57.390;-2.468;2023-06-10T04:41:43;8.50;99.90
22450;DHT22;11392;57.390;-2.468;2023-06-10T04:44:10;8.50;99.90
22450;DHT22;11392;57.390;-2.468;2023-06-10T04:46:37;8.50;99.90
22450;DHT22;11392;57.390;-2.468;2023-06-10T04:49:04;8.60;99.90
22450;DHT22;11392;57.390;-2.468;2023-06-10T04:51:32;8.60;99.90
22450;DHT22;11392;57.390;-2.468;2023-06-10T04:53:59;8.60;99.90
22450;DHT22;11392;57.390;-2.468;2023-06-10T04:56:30;8.60;99.90
22450;DHT22;11392;57.390;-2.468;2023-06-10T04:58:58;8.60;99.90
22450;DHT22;11392;57.390;-2.468;2023-06-10T05:01:25;8.70;99.90
22450;DHT22;11392;57.390;-2.468;2023-06-10T05:03:52;8.70;99.90
22450;DHT22;11392;57.390;-2.468;2023-06-10T05:06:20;8.70;99.90
22450;DHT22;11392;57.390;-2.468;2023-06-10T05:08:47;8.70;99.90
22450;DHT22;11392;57.390;-2.468;2023-06-10T05:11:14;8.70;99.90
22450;DHT22;11392;57.390;-2.468;2023-06-10T05:13:41;8.60;99.90
22450;DHT22;11392;57.390;-2.468;2023-06-10T05:16:09;8.60;99.90
22450;DHT22;11392;57.390;-2.468;2023-06-10T05:18:36;8.60;99.90
22450;DHT22;11392;57.390;-2.468;2023-06-10T05:21:03;8.60;99.90
22450;DHT22;11392;57.390;-2.468;2023-06-10T05:23:30;8.60;99.90
22450;DHT22;11392;57.390;-2.468;2023-06-10T05:25:58;8.70;99.90
22450;DHT22;11392;57.390;-2.468;2023-06-10T05:28:26;8.70;99.90
22450;DHT22;11392;57.390;-2.468;2023-06-10T05:30:53;8.70;99.90
22450;DHT22;11392;57.390;-2.468;2023-06-10T05:33:20;8.80;99.90
22450;DHT22;11392;57.390;-2.468;2023-06-10T05:35:47;8.80;99.90
22450;DHT22;11392;57.390;-2.468;2023-06-10T05:38:14;9.00;99.90
22450;DHT22;11392;57.390;-2.468;2023-06-10T05:40:41;9.00;99.90
22450;DHT22;11392;57.390;-2.468;2023-06-10T05:43:08;9.10;99.90
22450;DHT22;11392;57.390;-2.468;2023-06-10T05:45:36;9.20;99.90
22450;DHT22;11392;57.390;-2.468;2023-06-10T05:48:04;9.20;99.90
22450;DHT22;11392;57.390;-2.468;2023-06-10T05:50:31;9.30;99.90
22450;DHT22;11392;57.390;-2.468;2023-06-10T05:53:05;9.40;99.90
22450;DHT22;11392;57.390;-2.468;2023-06-10T05:55:33;9.50;99.90
22450;DHT22;11392;57.390;-2.468;2023-06-10T05:58:01;9.60;99.90
22450;DHT22;11392;57.390;-2.468;2023-06-10T06:00:28;9.60;99.90
22450;DHT22;11392;57.390;-2.468;2023-06-10T06:02:55;9.60;99.90
22450;DHT22;11392;57.390;-2.468;2023-06-10T06:05:24;9.80;99.90
22450;DHT22;11392;57.390;-2.468;2023-06-10T06:07:52;9.80;99.90
22450;DHT22;11392;57.390;-2.468;2023-06-10T06:10:19;9.90;99.90
22450;DHT22;11392;57.390;-2.468;2023-06-10T06:12:46;10.00;99.90
22450;DHT22;11392;57.390;-2.468;2023-06-10T06:15:13;10.00;99.90
22450;DHT22;11392;57.390;-2.468;2023-06-10T06:17:40;10.10;99.90
22450;DHT22;11392;57.390;-2.468;2023-06-10T06:20:07;10.20;99.90
22450;DHT22;11392;57.390;-2.468;2023-06-10T06:22:35;10.30;99.90
22450;DHT22;11392;57.390;-2.468;2023-06-10T06:25:02;10.30;99.90
22450;DHT22;11392;57.390;-2.468;2023-06-10T06:27:29;10.50;99.90
22450;DHT22;11392;57.390;-2.468;2023-06-10T06:29:56;10.60;99.90
22450;DHT22;11392;57.390;-2.468;2023-06-10T06:32:25;10.70;99.90
22450;DHT22;11392;57.390;-2.468;2023-06-10T06:34:54;10.80;99.90
22450;DHT22;11392;57.390;-2.468;2023-06-10T06:37:22;10.90;99.90
22450;DHT22;11392;57.390;-2.468;2023-06-10T06:39:51;11.10;99.90
22450;DHT22;11392;57.390;-2.468;2023-06-10T06:42:18;11.20;99.90
22450;DHT22;11392;57.390;-2.468;2023-06-10T06:44:46;11.40;99.90
22450;DHT22;11392;57.390;-2.468;2023-06-10T06:47:13;11.50;99.90
22450;DHT22;11392;57.390;-2.468;2023-06-10T06:49:41;11.70;99.90
22450;DHT22;11392;57.390;-2.468;2023-06-10T06:52:08;11.90;99.90
22450;DHT22;11392;57.390;-2.468;2023-06-10T06:54:35;12.10;99.90
22450;DHT22;11392;57.390;-2.468;2023-06-10T06:57:02;12.20;99.90
22450;DHT22;11392;57.390;-2.468;2023-06-10T06:59:29;12.20;99.90
22450;DHT22;11392;57.390;-2.468;2023-06-10T07:01:56;12.40;99.90
22450;DHT22;11392;57.390;-2.468;2023-06-10T07:04:24;12.70;99.90
22450;DHT22;11392;57.390;-2.468;2023-06-10T07:06:51;12.80;99.90
22450;DHT22;11392;57.390;-2.468;2023-06-10T07:09:18;13.00;99.90
22450;DHT22;11392;57.390;-2.468;2023-06-10T07:11:45;13.10;99.90
22450;DHT22;11392;57.390;-2.468;2023-06-10T07:14:12;13.30;99.90
22450;DHT22;11392;57.390;-2.468;2023-06-10T07:16:39;13.40;99.90
22450;DHT22;11392;57.390;-2.468;2023-06-10T07:19:06;13.50;99.90
22450;DHT22;11392;57.390;-2.468;2023-06-10T07:21:33;13.60;99.90
22450;DHT22;11392;57.390;-2.468;2023-06-10T07:24:00;13.70;99.90
22450;DHT22;11392;57.390;-2.468;2023-06-10T07:26:27;13.70;99.90
22450;DHT22;11392;57.390;-2.468;2023-06-10T07:28:54;13.70;99.90
22450;DHT22;11392;57.390;-2.468;2023-06-10T07:31:22;13.80;99.90
22450;DHT22;11392;57.390;-2.468;2023-06-10T07:33:49;14.00;99.90
22450;DHT22;11392;57.390;-2.468;2023-06-10T07:36:16;14.00;99.90
22450;DHT22;11392;57.390;-2.468;2023-06-10T07:38:43;14.10;99.90
22450;DHT22;11392;57.390;-2.468;2023-06-10T07:41:10;14.30;99.90
22450;DHT22;11392;57.390;-2.468;2023-06-10T07:43:38;14.50;99.90
22450;DHT22;11392;57.390;-2.468;2023-06-10T07:46:05;14.60;99.90
22450;DHT22;11392;57.390;-2.468;2023-06-10T07:48:32;14.80;99.90
22450;DHT22;11392;57.390;-2.468;2023-06-10T07:50:59;14.60;99.90
22450;DHT22;11392;57.390;-2.468;2023-06-10T07:53:26;14.80;99.90
22450;DHT22;11392;57.390;-2.468;2023-06-10T07:55:53;14.90;99.90
22450;DHT22;11392;57.390;-2.468;2023-06-10T07:58:21;15.10;99.90
22450;DHT22;11392;57.390;-2.468;2023-06-10T08:00:48;15.20;99.90
22450;DHT22;11392;57.390;-2.468;2023-06-10T08:03:15;15.50;99.90
22450;DHT22;11392;57.390;-2.468;2023-06-10T08:05:43;15.80;99.90
22450;DHT22;11392;57.390;-2.468;2023-06-10T08:08:10;16.10;99.90
22450;DHT22;11392;57.390;-2.468;2023-06-10T08:10:37;16.20;99.90
22450;DHT22;11392;57.390;-2.468;2023-06-10T08:13:04;16.20;99.90
22450;DHT22;11392;57.390;-2.468;2023-06-10T08:15:31;16.50;99.90
22450;DHT22;11392;57.390;-2.468;2023-06-10T08:17:58;16.70;99.90
22450;DHT22;11392;57.390;-2.468;2023-06-10T08:20:25;17.00;99.90
22450;DHT22;11392;57.390;-2.468;2023-06-10T08:22:53;17.30;99.90
22450;DHT22;11392;57.390;-2.468;2023-06-10T08:25:20;17.50;99.90
22450;DHT22;11392;57.390;-2.468;2023-06-10T08:27:49;17.50;99.90
22450;DHT22;11392;57.390;-2.468;2023-06-10T08:30:17;17.30;99.90
22450;DHT22;11392;57.390;-2.468;2023-06-10T08:32:44;17.50;99.90
22450;DHT22;11392;57.390;-2.468;2023-06-10T08:35:12;17.40;99.90
22450;DHT22;11392;57.390;-2.468;2023-06-10T08:37:39;17.40;99.90
22450;DHT22;11392;57.390;-2.468;2023-06-10T08:40:07;17.70;99.90
22450;DHT22;11392;57.390;-2.468;2023-06-10T08:43:04;17.70;99.90
22450;DHT22;11392;57.390;-2.468;2023-06-10T08:45:35;18.00;99.90
22450;DHT22;11392;57.390;-2.468;2023-06-10T08:48:05;18.10;99.90
22450;DHT22;11392;57.390;-2.468;2023-06-10T08:50:37;18.40;99.90
22450;DHT22;11392;57.390;-2.468;2023-06-10T08:53:07;18.30;99.90
22450;DHT22;11392;57.390;-2.468;2023-06-10T08:55:41;18.40;99.90
22450;DHT22;11392;57.390;-2.468;2023-06-10T08:58:09;18.60;99.90
22450;DHT22;11392;57.390;-2.468;2023-06-10T09:00:37;18.80;99.90
22450;DHT22;11392;57.390;-2.468;2023-06-10T09:03:04;19.00;99.90
22450;DHT22;11392;57.390;-2.468;2023-06-10T09:05:35;19.10;99.90
22450;DHT22;11392;57.390;-2.468;2023-06-10T09:08:04;19.10;99.90
22450;DHT22;11392;57.390;-2.468;2023-06-10T09:10:32;19.30;99.90
22450;DHT22;11392;57.390;-2.468;2023-06-10T09:12:59;19.60;99.90
22450;DHT22;11392;57.390;-2.468;2023-06-10T09:15:27;19.70;99.90
22450;DHT22;11392;57.390;-2.468;2023-06-10T09:17:54;19.90;99.90
22450;DHT22;11392;57.390;-2.468;2023-06-10T09:20:22;20.20;99.90
22450;DHT22;11392;57.390;-2.468;2023-06-10T09:22:50;19.90;99.90
22450;DHT22;11392;57.390;-2.468;2023-06-10T09:25:17;20.00;99.90
22450;DHT22;11392;57.390;-2.468;2023-06-10T09:27:49;20.20;99.90
22450;DHT22;11392;57.390;-2.468;2023-06-10T09:30:28;20.20;99.90
22450;DHT22;11392;57.390;-2.468;2023-06-10T09:32:57;20.30;99.90
22450;DHT22;11392;57.390;-2.468;2023-06-10T09:35:26;20.50;99.90
22450;DHT22;11392;57.390;-2.468;2023-06-10T09:37:57;20.70;99.90
22450;DHT22;11392;57.390;-2.468;2023-06-10T09:40:24;20.90;99.90
22450;DHT22;11392;57.390;-2.468;2023-06-10T09:43:10;21.10;99.90
22450;DHT22;11392;57.390;-2.468;2023-06-10T09:45:40;21.20;99.90
22450;DHT22;11392;57.390;-2.468;2023-06-10T09:48:07;21.10;99.90
22450;DHT22;11392;57.390;-2.468;2023-06-10T09:50:34;21.30;99.90
22450;DHT22;11392;57.390;-2.468;2023-06-10T09:53:02;21.40;99.90
22450;DHT22;11392;57.390;-2.468;2023-06-10T09:55:33;21.30;99.90
22450;DHT22;11392;57.390;-2.468;2023-06-10T09:58:00;21.20;99.90
22450;DHT22;11392;57.390;-2.468;2023-06-10T10:00:27;21.40;99.90
22450;DHT22;11392;57.390;-2.468;2023-06-10T10:02:54;21.70;99.90
22450;DHT22;11392;57.390;-2.468;2023-06-10T10:05:22;21.90;99.90
22450;DHT22;11392;57.390;-2.468;2023-06-10T10:07:50;22.00;99.90
22450;DHT22;11392;57.390;-2.468;2023-06-10T10:10:20;21.90;99.90
22450;DHT22;11392;57.390;-2.468;2023-06-10T10:12:48;21.80;99.90
22450;DHT22;11392;57.390;-2.468;2023-06-10T10:15:17;22.00;99.90
22450;DHT22;11392;57.390;-2.468;2023-06-10T10:17:58;22.20;99.90
22450;DHT22;11392;57.390;-2.468;2023-06-10T10:20:31;22.50;99.90
22450;DHT22;11392;57.390;-2.468;2023-06-10T10:23:03;22.70;99.90
22450;DHT22;11392;57.390;-2.468;2023-06-10T10:25:35;22.90;99.90
22450;DHT22;11392;57.390;-2.468;2023-06-10T10:28:13;22.90;99.90
22450;DHT22;11392;57.390;-2.468;2023-06-10T10:30:46;22.80;99.90
22450;DHT22;11392;57.390;-2.468;2023-06-10T10:33:20;22.70;99.90
22450;DHT22;11392;57.390;-2.468;2023-06-10T10:35:50;22.80;99.90
22450;DHT22;11392;57.390;-2.468;2023-06-10T10:38:17;22.80;99.90
22450;DHT22;11392;57.390;-2.468;2023-06-10T10:40:45;22.90;99.90
22450;DHT22;11392;57.390;-2.468;2023-06-10T10:43:13;23.10;99.90
22450;DHT22;11392;57.390;-2.468;2023-06-10T10:45:41;23.10;99.90
22450;DHT22;11392;57.390;-2.468;2023-06-10T10:48:09;22.90;99.90
22450;DHT22;11392;57.390;-2.468;2023-06-10T10:50:39;23.10;99.90
22450;DHT22;11392;57.390;-2.468;2023-06-10T10:53:07;23.20;99.90
22450;DHT22;11392;57.390;-2.468;2023-06-10T10:55:35;23.00;99.90
22450;DHT22;11392;57.390;-2.468;2023-06-10T10:58:08;23.10;99.90
22450;DHT22;11392;57.390;-2.468;2023-06-10T11:00:37;23.30;99.90
22450;DHT22;11392;57.390;-2.468;2023-06-10T11:03:06;23.40;99.90
22450;DHT22;11392;57.390;-2.468;2023-06-10T11:05:43;23.50;99.90
22450;DHT22;11392;57.390;-2.468;2023-06-10T11:08:11;23.70;99.90
22450;DHT22;11392;57.390;-2.468;2023-06-10T11:10:40;24.10;99.90
22450;DHT22;11392;57.390;-2.468;2023-06-10T11:13:09;24.30;99.90
22450;DHT22;11392;57.390;-2.468;2023-06-10T11:15:52;24.00;99.90
22450;DHT22;11392;57.390;-2.468;2023-06-10T11:18:25;24.10;99.90
22450;DHT22;11392;57.390;-2.468;2023-06-10T11:20:55;24.20;99.90
22450;DHT22;11392;57.390;-2.468;2023-06-10T11:31:28;24.90;99.90
22450;DHT22;11392;57.390;-2.468;2023-06-10T11:33:57;24.90;99.90
22450;DHT22;11392;57.390;-2.468;2023-06-10T11:36:25;25.10;99.90
22450;DHT22;11392;57.390;-2.468;2023-06-10T11:39:00;25.00;99.90
22450;DHT22;11392;57.390;-2.468;2023-06-10T11:41:29;24.50;99.90
22450;DHT22;11392;57.390;-2.468;2023-06-10T11:44:18;24.60;99.90
22450;DHT22;11392;57.390;-2.468;2023-06-10T11:46:48;24.50;99.90
22450;DHT22;11392;57.390;-2.468;2023-06-10T11:49:15;24.70;99.90
22450;DHT22;11392;57.390;-2.468;2023-06-10T11:51:43;24.90;99.90
22450;DHT22;11392;57.390;-2.468;2023-06-10T11:54:17;24.70;99.90
22450;DHT22;11392;57.390;-2.468;2023-06-10T11:56:46;24.80;99.90
22450;DHT22;11392;57.390;-2.468;2023-06-10T11:59:13;24.60;99.90
22450;DHT22;11392;57.390;-2.468;2023-06-10T12:01:44;24.90;99.90
22450;DHT22;11392;57.390;-2.468;2023-06-10T12:04:14;25.20;99.90
22450;DHT22;11392;57.390;-2.468;2023-06-10T12:06:47;25.10;99.90
22450;DHT22;11392;57.390;-2.468;2023-06-10T12:09:25;25.20;99.90
22450;DHT22;11392;57.390;-2.468;2023-06-10T12:14:51;24.90;99.90
22450;DHT22;11392;57.390;-2.468;2023-06-10T12:17:22;24.90;99.90
22450;DHT22;11392;57.390;-2.468;2023-06-10T12:19:51;24.90;99.90
22450;DHT22;11392;57.390;-2.468;2023-06-10T12:22:18;24.90;99.90
22450;DHT22;11392;57.390;-2.468;2023-06-10T12:27:26;25.00;99.90
22450;DHT22;11392;57.390;-2.468;2023-06-10T12:29:57;24.80;99.90
22450;DHT22;11392;57.390;-2.468;2023-06-10T12:35:09;24.60;99.80
22450;DHT22;11392;57.390;-2.468;2023-06-10T12:37:37;24.60;99.90
22450;DHT22;11392;57.390;-2.468;2023-06-10T12:40:09;24.70;99.90
22450;DHT22;11392;57.390;-2.468;2023-06-10T12:42:37;24.80;99.90
22450;DHT22;11392;57.390;-2.468;2023-06-10T12:45:05;24.90;99.90
22450;DHT22;11392;57.390;-2.468;2023-06-10T12:47:37;24.80;99.90
22450;DHT22;11392;57.390;-2.468;2023-06-10T12:50:07;25.00;97.80
22450;DHT22;11392;57.390;-2.468;2023-06-10T12:52:35;25.10;99.90
22450;DHT22;11392;57.390;-2.468;2023-06-10T12:55:02;24.90;99.00
22450;DHT22;11392;57.390;-2.468;2023-06-10T12:57:31;24.80;97.90
22450;DHT22;11392;57.390;-2.468;2023-06-10T12:59:58;24.90;98.80
22450;DHT22;11392;57.390;-2.468;2023-06-10T13:02:31;25.00;97.90
22450;DHT22;11392;57.390;-2.468;2023-06-10T13:04:58;25.20;98.00
22450;DHT22;11392;57.390;-2.468;2023-06-10T13:07:26;25.20;97.20
22450;DHT22;11392;57.390;-2.468;2023-06-10T13:09:53;25.30;98.00
22450;DHT22;11392;57.390;-2.468;2023-06-10T13:12:20;25.20;97.50
22450;DHT22;11392;57.390;-2.468;2023-06-10T13:15:07;25.20;97.70
22450;DHT22;11392;57.390;-2.468;2023-06-10T13:17:35;25.00;97.90
22450;DHT22;11392;57.390;-2.468;2023-06-10T13:20:03;25.30;99.90
22450;DHT22;11392;57.390;-2.468;2023-06-10T13:22:32;25.20;99.70
22450;DHT22;11392;57.390;-2.468;2023-06-10T13:25:02;25.20;98.50
22450;DHT22;11392;57.390;-2.468;2023-06-10T13:27:30;25.10;99.80
22450;DHT22;11392;57.390;-2.468;2023-06-10T13:29:58;25.10;98.80
22450;DHT22;11392;57.390;-2.468;2023-06-10T13:32:25;25.20;99.20
22450;DHT22;11392;57.390;-2.468;2023-06-10T13:34:52;25.40;99.90
22450;DHT22;11392;57.390;-2.468;2023-06-10T13:37:24;25.60;99.90
22450;DHT22;11392;57.390;-2.468;2023-06-10T13:39:51;25.60;99.90
22450;DHT22;11392;57.390;-2.468;2023-06-10T13:42:19;25.50;99.90
22450;DHT22;11392;57.390;-2.468;2023-06-10T13:44:49;25.50;99.90
22450;DHT22;11392;57.390;-2.468;2023-06-10T13:47:16;25.60;99.90
22450;DHT22;11392;57.390;-2.468;2023-06-10T13:49:44;25.40;99.90
22450;DHT22;11392;57.390;-2.468;2023-06-10T13:52:11;25.20;98.60
22450;DHT22;11392;57.390;-2.468;2023-06-10T13:54:38;25.10;99.90
22450;DHT22;11392;57.390;-2.468;2023-06-10T13:57:06;25.20;99.90
22450;DHT22;11392;57.390;-2.468;2023-06-10T13:59:33;25.00;99.90
22450;DHT22;11392;57.390;-2.468;2023-06-10T14:02:00;24.70;99.90
22450;DHT22;11392;57.390;-2.468;2023-06-10T14:04:28;24.60;99.90
22450;DHT22;11392;57.390;-2.468;2023-06-10T14:06:55;24.70;99.90
22450;DHT22;11392;57.390;-2.468;2023-06-10T14:09:22;24.30;99.90
22450;DHT22;11392;57.390;-2.468;2023-06-10T14:11:49;24.40;99.90
22450;DHT22;11392;57.390;-2.468;2023-06-10T14:14:17;24.50;99.90
22450;DHT22;11392;57.390;-2.468;2023-06-10T14:16:44;24.40;99.90
22450;DHT22;11392;57.390;-2.468;2023-06-10T14:19:11;24.70;99.90
22450;DHT22;11392;57.390;-2.468;2023-06-10T14:21:38;24.80;99.90
22450;DHT22;11392;57.390;-2.468;2023-06-10T14:24:05;24.80;99.90
22450;DHT22;11392;57.390;-2.468;2023-06-10T14:26:32;24.50;99.90
22450;DHT22;11392;57.390;-2.468;2023-06-10T14:29:00;24.60;99.90
22450;DHT22;11392;57.390;-2.468;2023-06-10T14:31:27;24.30;99.90
22450;DHT22;11392;57.390;-2.468;2023-06-10T14:33:54;24.40;99.90
22450;DHT22;11392;57.390;-2.468;2023-06-10T14:36:21;24.30;99.90
22450;DHT22;11392;57.390;-2.468;2023-06-10T14:38:48;24.40;99.90
22450;DHT22;11392;57.390;-2.468;2023-06-10T14:41:15;24.30;99.90
22450;DHT22;11392;57.390;-2.468;2023-06-10T14:43:42;24.30;99.90
22450;DHT22;11392;57.390;-2.468;2023-06-10T14:46:09;24.10;99.90
22450;DHT22;11392;57.390;-2.468;2023-06-10T14:48:36;23.80;99.90
22450;DHT22;11392;57.390;-2.468;2023-06-10T14:51:03;23.70;99.90
22450;DHT22;11392;57.390;-2.468;2023-06-10T14:53:31;23.90;99.90
22450;DHT22;11392;57.390;-2.468;2023-06-10T14:55:58;23.80;99.90
22450;DHT22;11392;57.390;-2.468;2023-06-10T14:58:25;23.60;99.90
22450;DHT22;11392;57.390;-2.468;2023-06-10T15:00:52;23.20;99.90
22450;DHT22;11392;57.390;-2.468;2023-06-10T15:03:19;23.10;99.90
22450;DHT22;11392;57.390;-2.468;2023-06-10T15:05:46;22.90;99.90
22450;DHT22;11392;57.390;-2.468;2023-06-10T15:08:13;23.10;99.90
22450;DHT22;11392;57.390;-2.468;2023-06-10T15:10:40;23.00;99.90
22450;DHT22;11392;57.390;-2.468;2023-06-10T15:13:07;22.70;99.90
22450;DHT22;11392;57.390;-2.468;2023-06-10T15:15:34;22.80;99.90
22450;DHT22;11392;57.390;-2.468;2023-06-10T15:18:01;22.70;99.90
22450;DHT22;11392;57.390;-2.468;2023-06-10T15:20:29;22.70;99.90
22450;DHT22;11392;57.390;-2.468;2023-06-10T15:22:56;22.70;99.90
22450;DHT22;11392;57.390;-2.468;2023-06-10T15:25:23;22.50;99.90
22450;DHT22;11392;57.390;-2.468;2023-06-10T15:27:57;22.60;99.90
22450;DHT22;11392;57.390;-2.468;2023-06-10T15:30:25;22.50;99.90
22450;DHT22;11392;57.390;-2.468;2023-06-10T15:32:52;22.50;99.90
22450;DHT22;11392;57.390;-2.468;2023-06-10T15:35:19;22.30;99.90
22450;DHT22;11392;57.390;-2.468;2023-06-10T15:37:47;22.30;99.90
22450;DHT22;11392;57.390;-2.468;2023-06-10T15:40:14;22.00;99.90
22450;DHT22;11392;57.390;-2.468;2023-06-10T15:42:41;22.00;99.90
22450;DHT22;11392;57.390;-2.468;2023-06-10T15:45:08;21.90;99.90
22450;DHT22;11392;57.390;-2.468;2023-06-10T15:47:36;21.70;99.90